Time;durP1;ratioP1;P1;durP2;ratioP2;P2;SDS_P1;SDS_P2;PMS_P1;PMS_P2;Temp;Humidity;BMP_temperature;BMP_pressure;BME280_temperature;BME280_humidity;BME280_pressure;Samples;Min_cycle;Max_cycle;Signal;HPM_P1;HPM_P2
2021/04/14 00:01:33;;;;;;;11.17;10.17;;;0.50;99.90;;;;;;5008454;28;20432;-77
2021/04/14 00:03:59;;;;;;;13.23;10.57;;;0.40;99.90;;;;;;5006282;28;20483;-77
2021/04/14 00:06:26;;;;;;;12.73;10.83;;;0.40;99.90;;;;;;5008880;28;20440;-77
2021/04/14 00:08:53;;;;;;;12.43;11.17;;;0.30;99.90;;;;;;5009504;28;20432;-76
2021/04/14 00:11:20;;;;;;;11.57;10.57;;;0.30;99.90;;;;;;5008119;28;20992;-77
2021/04/14 00:13:47;;;;;;;13.40;11.07;;;0.30;99.90;;;;;;5010459;28;20443;-76
2021/04/14 00:16:15;;;;;;;12.77;11.57;;;0.30;99.90;;;;;;5002542;28;21020;-77
2021/04/14 00:18:42;;;;;;;11.90;10.80;;;0.30;99.90;;;;;;5008219;28;20793;-76
2021/04/14 00:21:09;;;;;;;11.83;10.50;;;0.30;99.90;;;;;;5004837;28;20870;-77
2021/04/14 00:23:36;;;;;;;13.10;11.70;;;0.30;99.90;;;;;;5008992;28;20857;-77
2021/04/14 00:26:03;;;;;;;12.97;11.67;;;0.20;99.90;;;;;;5007288;28;20800;-76
2021/04/14 00:28:30;;;;;;;13.37;12.17;;;0.20;99.90;;;;;;5000572;28;20460;-77
2021/04/14 00:30:56;;;;;;;12.37;11.27;;;0.20;99.90;;;;;;5018062;23;20491;-75
2021/04/14 00:33:22;;;;;;;12.63;11.37;;;0.20;99.90;;;;;;5010582;28;20456;-75
2021/04/14 00:35:49;;;;;;;12.50;11.30;;;0.10;99.90;;;;;;5011652;28;20452;-75
2021/04/14 00:38:18;;;;;;;12.67;11.40;;;0.10;99.90;;;;;;5013024;28;20428;-75
2021/04/14 00:40:48;;;;;;;15.93;12.37;;;0.10;99.90;;;;;;5007368;28;20464;-75
2021/04/14 00:43:17;;;;;;;13.17;11.97;;;0.10;99.90;;;;;;5004719;28;20468;-76
2021/04/14 00:45:44;;;;;;;14.80;12.90;;;0.10;99.90;;;;;;5006480;28;20451;-75
2021/04/14 00:48:11;;;;;;;12.63;11.53;;;0.10;99.90;;;;;;5004383;28;20467;-75
2021/04/14 00:50:38;;;;;;;12.30;11.10;;;0.10;99.90;;;;;;5007191;28;20914;-75
2021/04/14 00:53:05;;;;;;;13.93;12.40;;;0.00;99.90;;;;;;5005169;28;20462;-75
2021/04/14 00:55:33;;;;;;;13.67;12.27;;;0.00;99.90;;;;;;5007711;28;20526;-75
2021/04/14 00:58:00;;;;;;;17.37;13.53;;;0.00;99.90;;;;;;5005875;28;20502;-75
2021/04/14 01:00:32;;;;;;;14.73;13.23;;;0.10;99.90;;;;;;5003110;28;20463;-75
2021/04/14 01:02:58;;;;;;;15.47;12.80;;;0.20;99.90;;;;;;5004506;28;20487;-75
2021/04/14 01:05:27;;;;;;;13.93;12.53;;;0.10;99.90;;;;;;5012553;28;20498;-75
2021/04/14 01:07:53;;;;;;;14.40;13.00;;;0.00;99.90;;;;;;5012422;28;20428;-75
2021/04/14 01:10:20;;;;;;;14.97;13.07;;;-0.10;99.90;;;;;;5004800;28;20539;-76
2021/04/14 01:12:49;;;;;;;14.53;13.00;;;0.00;99.90;;;;;;5009417;28;20485;-75
2021/04/14 01:15:26;;;;;;;16.43;13.20;;;0.00;99.90;;;;;;5006846;28;20416;-75
2021/04/14 01:17:53;;;;;;;14.20;12.67;;;0.00;99.90;;;;;;5003511;28;20455;-75
2021/04/14 01:20:19;;;;;;;14.03;12.60;;;0.10;99.90;;;;;;5007316;28;20479;-75
2021/04/14 01:22:47;;;;;;;13.77;12.27;;;0.00;99.90;;;;;;5006156;28;20459;-75
2021/04/14 01:25:19;;;;;;;13.63;12.37;;;0.00;99.90;;;;;;5005136;28;20526;-75
2021/04/14 01:27:45;;;;;;;13.70;12.37;;;0.00;99.90;;;;;;5011042;28;20447;-75
2021/04/14 01:30:17;;;;;;;13.13;11.73;;;0.10;99.90;;;;;;5012126;28;20983;-75
2021/04/14 01:32:44;;;;;;;14.37;12.70;;;0.00;99.90;;;;;;5012217;28;20424;-75
2021/04/14 01:35:12;;;;;;;13.50;12.20;;;0.00;99.90;;;;;;5010908;28;20443;-75
2021/04/14 01:37:39;;;;;;;12.70;11.40;;;-0.10;99.90;;;;;;5011017;28;20500;-75
2021/04/14 01:40:07;;;;;;;12.97;11.63;;;-0.10;99.90;;;;;;5012184;28;20513;-75
2021/04/14 01:42:34;;;;;;;13.03;11.73;;;-0.10;99.90;;;;;;5012068;28;20442;-75
2021/04/14 01:45:00;;;;;;;12.73;11.43;;;-0.10;99.90;;;;;;5011232;28;20467;-75
2021/04/14 01:47:27;;;;;;;13.17;11.90;;;-0.20;99.90;;;;;;5011954;28;20438;-75
2021/04/14 01:49:53;;;;;;;13.93;12.43;;;-0.20;99.90;;;;;;5010643;28;20474;-75
2021/04/14 01:52:19;;;;;;;12.43;11.33;;;-0.20;99.90;;;;;;5012047;28;20445;-75
2021/04/14 01:54:45;;;;;;;13.73;12.33;;;-0.20;99.90;;;;;;5011915;28;20431;-75
2021/04/14 01:57:13;;;;;;;13.10;11.80;;;-0.10;99.90;;;;;;5011882;28;20423;-75
2021/04/14 01:59:39;;;;;;;12.50;11.30;;;-0.10;99.90;;;;;;5011919;28;20486;-76
2021/04/14 02:02:06;;;;;;;12.97;11.67;;;-0.20;99.90;;;;;;5011866;28;20870;-75
2021/04/14 02:04:32;;;;;;;14.40;13.00;;;-0.20;99.90;;;;;;5010528;28;20471;-75
2021/04/14 02:06:59;;;;;;;13.63;12.33;;;-0.20;99.90;;;;;;5010739;28;20443;-75
2021/04/14 02:09:25;;;;;;;13.33;12.07;;;-0.20;99.90;;;;;;5010913;28;20455;-75
2021/04/14 02:11:51;;;;;;;16.07;12.70;;;-0.30;99.90;;;;;;5011580;28;20443;-75
2021/04/14 02:14:19;;;;;;;14.43;12.73;;;-0.30;99.90;;;;;;5010394;28;20506;-75
2021/04/14 02:16:45;;;;;;;14.00;12.53;;;-0.30;99.90;;;;;;5010643;28;20447;-75
2021/04/14 02:19:11;;;;;;;13.17;11.97;;;-0.40;99.90;;;;;;5011896;28;20441;-75
2021/04/14 02:21:38;;;;;;;13.03;11.70;;;-0.40;99.90;;;;;;5011756;28;20495;-75
2021/04/14 02:24:05;;;;;;;13.20;11.90;;;-0.50;99.90;;;;;;5010204;28;20523;-75
2021/04/14 02:26:32;;;;;;;13.40;12.10;;;-0.50;99.90;;;;;;5011695;28;20783;-75
2021/04/14 02:28:59;;;;;;;13.53;12.00;;;-0.40;99.90;;;;;;5010485;28;20454;-75
2021/04/14 02:31:31;;;;;;;13.37;12.00;;;-0.50;99.90;;;;;;5011583;28;21001;-76
2021/04/14 02:33:58;;;;;;;13.63;12.43;;;-0.50;99.90;;;;;;5010980;28;20443;-81
2021/04/14 02:36:25;;;;;;;13.03;11.83;;;-0.50;99.90;;;;;;5011777;28;20446;-75
2021/04/14 02:38:51;;;;;;;13.27;11.87;;;-0.50;99.90;;;;;;5011633;28;20942;-76
2021/04/14 02:41:19;;;;;;;13.93;12.43;;;-0.50;99.90;;;;;;5010680;28;20463;-75
2021/04/14 02:43:45;;;;;;;12.73;11.57;;;-0.60;99.90;;;;;;5005959;28;20475;-77
2021/04/14 02:46:11;;;;;;;12.30;11.20;;;-0.70;99.90;;;;;;5010521;28;20450;-75
2021/04/14 02:48:38;;;;;;;13.07;11.73;;;-0.80;99.90;;;;;;5004412;28;20455;-76
2021/04/14 02:51:06;;;;;;;13.67;12.37;;;-0.80;99.90;;;;;;5005304;28;20459;-77
2021/04/14 02:53:33;;;;;;;14.10;12.70;;;-0.90;99.90;;;;;;4997041;28;20444;-75
2021/04/14 02:55:59;;;;;;;13.13;11.83;;;-0.80;99.90;;;;;;5002388;28;20451;-76
2021/04/14 02:58:26;;;;;;;14.23;12.93;;;-0.80;99.90;;;;;;5005584;28;20464;-76
2021/04/14 03:00:53;;;;;;;17.00;13.23;;;-0.80;99.90;;;;;;5005131;28;20455;-77
2021/04/14 03:03:19;;;;;;;14.20;12.80;;;-0.70;99.90;;;;;;5006372;28;20447;-78
2021/04/14 03:05:46;;;;;;;14.17;12.83;;;-0.80;99.90;;;;;;5013159;28;20447;-77
2021/04/14 03:08:13;;;;;;;13.57;12.27;;;-0.80;99.90;;;;;;5015135;28;20457;-76
2021/04/14 03:10:39;;;;;;;13.57;12.27;;;-0.80;99.90;;;;;;5014651;28;20455;-76
2021/04/14 03:13:06;;;;;;;13.23;12.00;;;-0.90;99.90;;;;;;5013801;28;20444;-74
2021/04/14 03:15:38;;;;;;;16.30;13.57;;;-1.00;99.90;;;;;;5015488;28;20434;-78
2021/04/14 03:18:05;;;;;;;14.13;12.63;;;-1.00;99.90;;;;;;5015013;28;20483;-76
2021/04/14 03:20:32;;;;;;;12.90;11.73;;;-1.00;99.90;;;;;;5010338;28;20471;-76
2021/04/14 03:22:59;;;;;;;13.33;12.10;;;-1.10;99.90;;;;;;5015075;28;20455;-77
2021/04/14 03:25:28;;;;;;;14.00;12.60;;;-1.10;99.90;;;;;;5008619;28;20472;-76
2021/04/14 03:27:54;;;;;;;18.73;14.23;;;-1.10;99.90;;;;;;5011006;28;20447;-76
2021/04/14 03:30:22;;;;;;;15.10;13.67;;;-1.00;99.90;;;;;;5010585;28;20483;-76
2021/04/14 03:32:48;;;;;;;14.13;12.83;;;-1.00;99.90;;;;;;5012183;28;20419;-76
2021/04/14 03:35:15;;;;;;;14.70;13.20;;;-1.00;99.90;;;;;;5010708;28;20471;-76
2021/04/14 03:37:42;;;;;;;13.60;12.40;;;-1.00;99.90;;;;;;5011389;28;20443;-76
2021/04/14 03:40:10;;;;;;;13.83;12.43;;;-1.00;99.90;;;;;;5013804;28;21032;-76
2021/04/14 03:42:37;;;;;;;14.83;13.33;;;-1.10;99.90;;;;;;5014261;28;20439;-76
2021/04/14 03:45:11;;;;;;;14.70;13.30;;;-1.10;99.90;;;;;;5014241;28;20480;-77
2021/04/14 03:47:37;;;;;;;15.03;13.37;;;-1.00;99.90;;;;;;5013546;28;20873;-77
2021/04/14 03:50:05;;;;;;;14.37;12.93;;;-1.00;99.90;;;;;;5013002;28;20471;-77
2021/04/14 03:52:32;;;;;;;13.73;12.33;;;-1.00;99.90;;;;;;5013036;28;20450;-77
2021/04/14 03:54:58;;;;;;;14.10;12.70;;;-1.00;99.90;;;;;;5012793;28;20440;-77
2021/04/14 03:57:25;;;;;;;13.77;12.47;;;-0.90;99.90;;;;;;5014162;28;21126;-77
2021/04/14 03:59:51;;;;;;;15.03;13.53;;;-0.90;99.90;;;;;;5014238;28;20458;-77
2021/04/14 04:02:18;;;;;;;16.07;14.37;;;-0.90;99.90;;;;;;5013996;28;20431;-77
2021/04/14 04:04:44;;;;;;;18.47;14.80;;;-0.90;99.90;;;;;;5013809;28;20490;-77
2021/04/14 04:07:10;;;;;;;14.87;13.37;;;-1.00;99.90;;;;;;5012677;28;20836;-77
2021/04/14 04:09:37;;;;;;;15.27;13.77;;;-1.00;99.90;;;;;;5011823;28;20462;-77
2021/04/14 04:12:07;;;;;;;15.93;13.97;;;-1.00;99.90;;;;;;5013728;28;20439;-77
2021/04/14 04:14:35;;;;;;;14.83;13.23;;;-1.10;99.90;;;;;;5012255;28;20465;-77
2021/04/14 04:17:02;;;;;;;13.80;12.40;;;-1.10;99.90;;;;;;5013657;28;20423;-77
2021/04/14 04:19:28;;;;;;;14.63;13.43;;;-1.20;99.90;;;;;;5013676;28;20493;-77
2021/04/14 04:21:54;;;;;;;18.63;15.03;;;-1.20;99.90;;;;;;5013562;28;20451;-77
2021/04/14 04:24:21;;;;;;;16.33;14.63;;;-1.10;99.90;;;;;;5013223;28;20545;-77
2021/04/14 04:26:47;;;;;;;18.80;14.90;;;-1.00;99.90;;;;;;5013433;28;20428;-76
2021/04/14 04:29:13;;;;;;;15.93;14.43;;;-1.10;99.90;;;;;;5013401;28;20428;-77
2021/04/14 04:31:40;;;;;;;16.77;14.40;;;-1.10;99.90;;;;;;5013468;28;20466;-77
2021/04/14 04:34:07;;;;;;;16.07;13.93;;;-1.10;99.90;;;;;;5013175;28;20424;-76
2021/04/14 04:36:33;;;;;;;14.73;13.33;;;-1.10;99.90;;;;;;5012034;28;20444;-76
2021/04/14 04:38:59;;;;;;;18.93;15.17;;;-1.10;99.90;;;;;;5013140;28;20436;-76
2021/04/14 04:41:26;;;;;;;14.73;13.17;;;-1.10;99.90;;;;;;5012179;28;20554;-76
2021/04/14 04:43:52;;;;;;;15.47;13.87;;;-1.20;99.90;;;;;;5012280;28;20500;-77
2021/04/14 04:46:18;;;;;;;15.30;13.77;;;-1.20;99.90;;;;;;5013477;28;20789;-76
2021/04/14 04:48:45;;;;;;;15.67;13.93;;;-1.20;99.90;;;;;;5013154;28;20432;-77
2021/04/14 04:51:12;;;;;;;16.60;14.83;;;-1.10;99.90;;;;;;5012948;28;20455;-77
2021/04/14 04:53:38;;;;;;;17.67;15.10;;;-1.00;99.90;;;;;;5012800;28;20435;-77
2021/04/14 04:56:05;;;;;;;15.63;14.07;;;-1.00;99.90;;;;;;5013131;28;20440;-77
2021/04/14 04:58:31;;;;;;;15.20;13.63;;;-1.00;99.90;;;;;;5011471;28;20475;-77
2021/04/14 05:00:57;;;;;;;16.87;15.17;;;-0.90;99.90;;;;;;5013146;28;20467;-76
2021/04/14 05:03:28;;;;;;;17.87;14.90;;;-0.90;99.90;;;;;;5011439;28;20515;-77
2021/04/14 05:05:56;;;;;;;16.53;14.87;;;-0.80;99.90;;;;;;5012676;28;20428;-77
2021/04/14 05:08:23;;;;;;;16.83;15.03;;;-0.80;99.90;;;;;;5011635;28;20447;-77
2021/04/14 05:10:49;;;;;;;16.13;14.27;;;-0.60;99.90;;;;;;5011436;28;20467;-76
2021/04/14 05:13:16;;;;;;;17.50;14.83;;;-0.60;99.90;;;;;;5011367;28;20463;-77
2021/04/14 05:15:42;;;;;;;15.67;14.10;;;-0.50;99.90;;;;;;5011469;28;20444;-77
2021/04/14 05:18:09;;;;;;;16.60;14.23;;;-0.30;99.90;;;;;;5012731;28;20432;-76
2021/04/14 05:20:36;;;;;;;19.70;13.30;;;-0.20;99.90;;;;;;5010880;28;20472;-76
2021/04/14 05:23:04;;;;;;;14.57;13.07;;;-0.10;99.90;;;;;;5011414;28;20447;-77
2021/04/14 05:25:32;;;;;;;15.53;13.70;;;-0.10;99.90;;;;;;5012171;28;20836;-77
2021/04/14 05:28:03;;;;;;;14.87;13.43;;;0.00;99.90;;;;;;5013132;28;20424;-77
2021/04/14 05:30:29;;;;;;;14.53;13.23;;;0.20;99.90;;;;;;5012422;28;20468;-77
2021/04/14 05:32:55;;;;;;;15.17;13.60;;;0.70;99.90;;;;;;5012422;28;20424;-77
2021/04/14 05:35:22;;;;;;;14.47;13.13;;;1.20;99.90;;;;;;5010839;28;20848;-77
2021/04/14 05:37:48;;;;;;;14.90;13.33;;;1.70;99.90;;;;;;5012357;28;20431;-76
2021/04/14 05:40:16;;;;;;;13.53;12.33;;;1.90;99.90;;;;;;5011026;28;20463;-76
2021/04/14 05:42:44;;;;;;;13.87;12.47;;;2.20;99.90;;;;;;5010947;28;21010;-76
2021/04/14 05:45:15;;;;;;;13.63;12.33;;;2.50;99.90;;;;;;5012023;28;20480;-77
2021/04/14 05:47:41;;;;;;;13.93;12.73;;;2.60;99.90;;;;;;5010793;28;20452;-76
2021/04/14 05:50:10;;;;;;;14.60;12.83;;;2.70;99.90;;;;;;5012002;28;20514;-76
2021/04/14 05:52:36;;;;;;;13.47;12.27;;;2.80;99.90;;;;;;5012113;28;20432;-77
2021/04/14 05:55:04;;;;;;;15.60;12.47;;;2.80;99.90;;;;;;5012000;28;20431;-77
2021/04/14 05:57:31;;;;;;;13.17;12.03;;;2.90;99.90;;;;;;5012032;28;20430;-77
2021/04/14 05:59:57;;;;;;;12.13;11.07;;;3.00;99.90;;;;;;5010570;28;20467;-77
2021/04/14 06:02:24;;;;;;;13.27;11.97;;;3.10;99.90;;;;;;5012026;28;20435;-77
2021/04/14 06:04:52;;;;;;;12.90;11.50;;;3.20;99.90;;;;;;5010494;28;20863;-77
2021/04/14 06:07:18;;;;;;;13.13;11.87;;;3.30;99.90;;;;;;5012019;28;20460;-77
2021/04/14 06:09:44;;;;;;;12.93;11.83;;;3.50;99.90;;;;;;5011894;28;20439;-76
2021/04/14 06:12:12;;;;;;;14.00;12.00;;;3.50;99.90;;;;;;5010598;28;20462;-77
2021/04/14 06:14:39;;;;;;;12.73;11.57;;;3.60;99.90;;;;;;5010354;28;20453;-77
2021/04/14 06:17:05;;;;;;;12.80;11.50;;;3.50;99.90;;;;;;5011883;28;20435;-76
2021/04/14 06:19:32;;;;;;;13.47;12.17;;;3.60;99.90;;;;;;5011749;28;20438;-76
2021/04/14 06:21:58;;;;;;;12.87;11.77;;;3.80;99.90;;;;;;5010372;28;21017;-77
2021/04/14 06:24:25;;;;;;;13.33;12.23;;;3.80;99.90;;;;;;5011548;28;20475;-77
2021/04/14 06:26:53;;;;;;;11.57;10.57;;;3.90;99.90;;;;;;5011867;28;20427;-76
2021/04/14 06:29:20;;;;;;;9.23;7.47;;;3.90;99.90;;;;;;5011734;28;20463;-76
2021/04/14 06:31:47;;;;;;;9.07;6.63;;;4.10;99.90;;;;;;5041896;23;20509;-79
2021/04/14 06:34:21;;;;;;;9.50;6.87;;;4.20;99.90;;;;;;5035074;28;20438;-79
2021/04/14 06:36:49;;;;;;;9.53;7.37;;;4.30;99.90;;;;;;5035863;28;20573;-79
2021/04/14 06:39:18;;;;;;;7.37;6.63;;;4.40;99.90;;;;;;5037057;28;20802;-79
2021/04/14 06:42:00;;;;;;;10.03;7.57;;;4.50;99.90;;;;;;5036965;28;21041;-79
2021/04/14 06:44:52;;;;;;;7.47;6.13;;;4.30;99.90;;;;;;5035998;28;20462;-79
2021/04/14 06:47:27;;;;;;;9.67;8.50;;;4.60;99.90;;;;;;5035873;28;20457;-79
2021/04/14 06:50:01;;;;;;;7.97;6.10;;;4.60;99.90;;;;;;5037333;28;20595;-79
2021/04/14 06:52:35;;;;;;;10.03;9.03;;;4.90;99.90;;;;;;5036317;28;20645;-79
2021/04/14 06:55:07;;;;;;;9.30;7.80;;;5.00;99.90;;;;;;5035039;28;20204;-79
2021/04/14 06:57:37;;;;;;;10.37;8.33;;;5.00;99.90;;;;;;5037356;28;20222;-79
2021/04/14 07:00:08;;;;;;;10.30;6.97;;;5.20;99.90;;;;;;5035341;28;20250;-79
2021/04/14 07:02:41;;;;;;;10.77;9.87;;;5.20;99.90;;;;;;5037081;28;20192;-79
2021/04/14 07:05:11;;;;;;;11.20;10.10;;;5.20;99.90;;;;;;5036191;28;20593;-79
2021/04/14 07:07:40;;;;;;;12.30;11.13;;;5.30;99.90;;;;;;5036943;28;20668;-79
2021/04/14 07:10:16;;;;;;;12.63;11.43;;;5.50;99.90;;;;;;5036609;28;20208;-79
2021/04/14 07:12:43;;;;;;;12.70;11.60;;;5.60;99.90;;;;;;5035527;28;20203;-79
2021/04/14 07:15:14;;;;;;;13.00;11.90;;;5.50;99.90;;;;;;5036541;28;20192;-79
2021/04/14 07:17:52;;;;;;;12.97;11.80;;;5.80;99.90;;;;;;5035700;28;20208;-79
2021/04/14 07:20:29;;;;;;;12.67;11.60;;;6.30;99.90;;;;;;5038210;28;20213;-79
2021/04/14 07:23:05;;;;;;;12.20;11.10;;;6.90;99.90;;;;;;5038087;28;20190;-79
2021/04/14 07:25:39;;;;;;;12.10;11.07;;;7.10;99.90;;;;;;5036753;28;20291;-79
2021/04/14 07:28:15;;;;;;;12.40;11.13;;;7.60;99.90;;;;;;5036498;28;20564;-80
2021/04/14 07:30:49;;;;;;;10.70;8.93;;;7.70;99.90;;;;;;5036994;28;20576;-80
2021/04/14 07:33:23;;;;;;;7.70;6.37;;;8.10;99.90;;;;;;5036204;28;20675;-79
2021/04/14 07:35:54;;;;;;;12.00;10.80;;;8.30;99.90;;;;;;5035533;28;20249;-79
2021/04/14 07:38:33;;;;;;;8.37;7.43;;;8.20;99.90;;;;;;5036725;28;20203;-79
2021/04/14 07:41:12;;;;;;;7.53;6.47;;;8.80;99.90;;;;;;5036515;28;20222;-79
2021/04/14 07:43:46;;;;;;;9.53;8.70;;;8.90;99.90;;;;;;5035161;28;20241;-79
2021/04/14 07:46:16;;;;;;;14.53;10.73;;;9.10;99.90;;;;;;5036225;28;20195;-80
2021/04/14 07:48:45;;;;;;;12.03;10.90;;;9.40;99.90;;;;;;5036338;28;20229;-80
2021/04/14 07:51:14;;;;;;;12.27;11.07;;;9.20;99.90;;;;;;5034564;28;20234;-80
2021/04/14 07:53:42;;;;;;;11.50;9.03;;;9.20;99.90;;;;;;5033951;28;20570;-79
2021/04/14 07:56:13;;;;;;;9.93;8.93;;;9.30;99.90;;;;;;5034466;28;20738;-79
2021/04/14 07:58:41;;;;;;;11.00;10.00;;;9.50;99.90;;;;;;5034667;28;20279;-80
2021/04/14 08:01:14;;;;;;;10.03;9.20;;;9.50;99.90;;;;;;5034385;28;20369;-81
2021/04/14 08:03:41;;;;;;;10.93;10.03;;;9.60;99.90;;;;;;5034207;28;20227;-80
2021/04/14 08:06:11;;;;;;;11.67;10.67;;;9.80;99.90;;;;;;5033978;28;20203;-80
2021/04/14 08:08:38;;;;;;;11.93;10.90;;;9.80;99.90;;;;;;5033924;28;20196;-79
2021/04/14 08:11:10;;;;;;;11.43;10.53;;;9.50;99.90;;;;;;5034029;28;20212;-79
2021/04/14 08:13:40;;;;;;;10.93;9.93;;;9.70;99.90;;;;;;5034706;28;20187;-80
2021/04/14 08:16:15;;;;;;;10.30;9.40;;;10.10;99.90;;;;;;5035164;28;20669;-80
2021/04/14 08:18:51;;;;;;;10.83;9.93;;;10.20;99.90;;;;;;5033947;28;20199;-80
2021/04/14 08:21:29;;;;;;;10.90;10.00;;;10.40;99.90;;;;;;5034243;28;20216;-80
2021/04/14 08:23:58;;;;;;;10.70;9.90;;;10.40;99.90;;;;;;5033851;28;20213;-80
2021/04/14 08:26:27;;;;;;;10.67;9.67;;;10.50;99.90;;;;;;5035616;28;20184;-81
2021/04/14 08:28:55;;;;;;;10.70;9.80;;;10.60;99.90;;;;;;5035284;28;20196;-80
2021/04/14 08:31:34;;;;;;;9.53;8.63;;;10.70;99.90;;;;;;5034969;28;20282;-80
2021/04/14 08:34:11;;;;;;;9.33;8.30;;;10.70;99.90;;;;;;5034662;28;20219;-80
2021/04/14 08:36:46;;;;;;;9.00;8.10;;;11.00;99.90;;;;;;5033840;28;20199;-80
2021/04/14 08:39:17;;;;;;;9.90;9.10;;;10.80;99.90;;;;;;5033630;28;20216;-80
2021/04/14 08:41:43;;;;;;;8.60;7.80;;;11.20;99.90;;;;;;5035062;28;20212;-80
2021/04/14 08:44:12;;;;;;;6.23;4.80;;;11.60;99.90;;;;;;5033437;28;20246;-80
2021/04/14 08:46:40;;;;;;;8.37;7.57;;;12.20;99.90;;;;;;5035333;28;20194;-80
2021/04/14 08:49:19;;;;;;;8.53;7.20;;;12.20;99.90;;;;;;5033307;28;20207;-80
2021/04/14 08:51:50;;;;;;;6.93;6.20;;;12.20;99.90;;;;;;5034740;28;20224;-79
2021/04/14 08:54:18;;;;;;;8.27;7.57;;;12.40;99.90;;;;;;5033757;28;20650;-80
2021/04/14 08:56:45;;;;;;;7.90;7.10;;;12.50;99.90;;;;;;5033003;28;20292;-80
2021/04/14 08:59:13;;;;;;;7.87;7.10;;;12.60;99.90;;;;;;5034218;28;20197;-80
2021/04/14 09:01:40;;;;;;;7.47;6.80;;;12.50;99.50;;;;;;5033080;28;20594;-80
2021/04/14 09:04:09;;;;;;;7.33;6.63;;;12.40;99.10;;;;;;5032120;28;20267;-80
2021/04/14 09:06:38;;;;;;;8.57;7.60;;;12.70;99.90;;;;;;5033321;28;20202;-80
2021/04/14 09:09:07;;;;;;;7.80;7.00;;;12.70;99.10;;;;;;5032793;28;20202;-80
2021/04/14 09:11:35;;;;;;;8.73;7.87;;;12.80;98.60;;;;;;5033818;28;20214;-80
2021/04/14 09:14:04;;;;;;;6.80;6.00;;;13.00;99.40;;;;;;5032908;28;20630;-81
2021/04/14 09:16:48;;;;;;;9.73;8.33;;;13.10;98.50;;;;;;5031902;28;20194;-80
2021/04/14 09:19:24;;;;;;;9.63;8.87;;;12.80;97.40;;;;;;5032048;28;20226;-80
2021/04/14 09:21:53;;;;;;;9.50;8.50;;;12.50;98.80;;;;;;5032042;28;20598;-80
2021/04/14 09:24:28;;;;;;;10.07;9.17;;;12.90;98.10;;;;;;5032891;28;20211;-80
2021/04/14 09:26:57;;;;;;;9.30;8.53;;;12.90;97.10;;;;;;5033183;28;20805;-80
2021/04/14 09:29:27;;;;;;;7.43;6.63;;;12.10;96.00;;;;;;5031428;28;20230;-80
2021/04/14 09:31:57;;;;;;;7.37;5.33;;;11.90;97.10;;;;;;5031665;28;20233;-80
2021/04/14 09:34:35;;;;;;;8.97;5.50;;;12.20;97.50;;;;;;5031701;28;20291;-80
2021/04/14 09:37:06;;;;;;;6.43;5.17;;;12.30;97.70;;;;;;5035869;28;20208;-81
2021/04/14 09:39:37;;;;;;;5.77;5.03;;;12.50;96.30;;;;;;5033982;28;20228;-81
2021/04/14 09:42:15;;;;;;;6.90;5.70;;;12.10;93.90;;;;;;5035499;28;20216;-81
2021/04/14 09:44:44;;;;;;;8.00;7.20;;;11.80;95.60;;;;;;5036220;28;20206;-80
2021/04/14 09:47:17;;;;;;;7.60;7.10;;;12.00;93.00;;;;;;5034334;28;20196;-81
2021/04/14 09:49:46;;;;;;;8.00;7.37;;;12.10;92.10;;;;;;5035610;28;20192;-81
2021/04/14 09:52:26;;;;;;;4.87;4.37;;;11.80;91.20;;;;;;5035985;28;20218;-79
2021/04/14 09:54:58;;;;;;;7.17;6.57;;;11.10;90.90;;;;;;5030947;28;20195;-80
2021/04/14 09:57:29;;;;;;;8.03;7.30;;;11.40;93.40;;;;;;5032549;28;20197;-80
2021/04/14 09:59:57;;;;;;;7.80;7.07;;;11.80;92.70;;;;;;5032948;28;20202;-81
2021/04/14 10:02:26;;;;;;;8.40;7.60;;;12.00;92.30;;;;;;5034514;28;20593;-80
2021/04/14 10:04:53;;;;;;;5.97;5.33;;;11.80;92.40;;;;;;5034909;28;20232;-80
2021/04/14 10:07:26;;;;;;;5.37;4.97;;;11.90;92.40;;;;;;5034342;28;20592;-80
2021/04/14 10:10:04;;;;;;;5.37;4.87;;;12.00;91.00;;;;;;5034930;28;20707;-80
2021/04/14 10:12:31;;;;;;;7.17;4.80;;;12.30;90.90;;;;;;5034900;28;20177;-80
2021/04/14 10:14:59;;;;;;;6.63;4.57;;;12.60;90.20;;;;;;5034726;28;20186;-80
2021/04/14 10:17:28;;;;;;;6.90;4.97;;;12.30;90.40;;;;;;5034476;28;20556;-80
2021/04/14 10:19:55;;;;;;;7.47;6.87;;;11.50;91.00;;;;;;5032840;28;20233;-80
2021/04/14 10:22:28;;;;;;;7.87;7.27;;;11.30;91.50;;;;;;5034438;28;20198;-80
2021/04/14 10:25:04;;;;;;;7.30;6.70;;;10.90;90.10;;;;;;5032760;28;20282;-81
2021/04/14 10:27:31;;;;;;;7.67;7.00;;;10.80;90.00;;;;;;5035409;28;20192;-80
2021/04/14 10:30:00;;;;;;;8.47;7.57;;;11.10;88.10;;;;;;5034491;28;20200;-80
2021/04/14 10:32:29;;;;;;;7.77;6.80;;;10.80;89.10;;;;;;5033864;28;20623;-79
2021/04/14 10:35:06;;;;;;;7.60;7.00;;;10.70;88.50;;;;;;5034942;28;20185;-79
2021/04/14 10:37:39;;;;;;;7.77;7.17;;;10.60;89.40;;;;;;5032741;28;20205;-79
2021/04/14 10:40:11;;;;;;;7.50;6.90;;;10.70;89.20;;;;;;5033524;28;20663;-80
2021/04/14 10:42:38;;;;;;;8.50;7.70;;;10.80;91.60;;;;;;5032569;28;20205;-79
2021/04/14 10:45:06;;;;;;;7.07;6.57;;;10.90;91.10;;;;;;5032090;28;20274;-80
2021/04/14 10:47:36;;;;;;;7.60;6.90;;;10.60;91.70;;;;;;5032709;28;20199;-80
2021/04/14 10:50:05;;;;;;;7.63;7.00;;;10.60;92.90;;;;;;5034110;28;20185;-80
2021/04/14 10:52:33;;;;;;;7.77;7.17;;;10.50;92.80;;;;;;5032925;28;20567;-79
2021/04/14 10:55:06;;;;;;;8.70;7.40;;;10.40;92.00;;;;;;5031484;28;20235;-80
2021/04/14 10:57:37;;;;;;;7.93;7.13;;;10.20;92.40;;;;;;5033171;28;20195;-79
2021/04/14 11:00:06;;;;;;;7.60;6.90;;;10.20;92.70;;;;;;5033597;28;20188;-79
2021/04/14 11:02:36;;;;;;;7.07;6.50;;;10.50;91.70;;;;;;5033344;28;20645;-79
2021/04/14 11:05:03;;;;;;;7.80;7.20;;;10.50;91.50;;;;;;5031622;28;20224;-80
2021/04/14 11:07:30;;;;;;;7.63;7.03;;;10.10;91.40;;;;;;5033197;28;20679;-80
2021/04/14 11:10:01;;;;;;;7.57;6.93;;;10.20;92.70;;;;;;5033420;28;20660;-79
2021/04/14 11:12:29;;;;;;;7.73;7.03;;;10.40;91.30;;;;;;5032889;28;20202;-79
2021/04/14 11:15:00;;;;;;;7.97;7.37;;;10.30;91.50;;;;;;5032012;28;20578;-79
2021/04/14 11:17:29;;;;;;;9.67;7.40;;;10.80;90.80;;;;;;5032610;28;20200;-79
2021/04/14 11:19:57;;;;;;;7.50;7.00;;;10.50;91.00;;;;;;5037579;28;20253;-79
2021/04/14 11:22:24;;;;;;;7.57;7.07;;;10.90;92.10;;;;;;5036110;28;20199;-80
2021/04/14 11:24:53;;;;;;;7.40;6.60;;;11.00;91.90;;;;;;5036475;28;20208;-79
2021/04/14 11:27:23;;;;;;;7.37;6.87;;;11.00;92.20;;;;;;5035163;28;20538;-80
2021/04/14 11:29:51;;;;;;;7.60;6.80;;;10.60;91.50;;;;;;5036926;28;20192;-79
2021/04/14 11:32:22;;;;;;;7.20;6.57;;;10.10;93.80;;;;;;5035455;28;20199;-79
2021/04/14 11:35:00;;;;;;;7.50;6.80;;;10.00;94.10;;;;;;5035180;28;20192;-79
2021/04/14 11:37:40;;;;;;;7.73;7.13;;;9.80;93.80;;;;;;5035643;28;20200;-80
2021/04/14 11:40:14;;;;;;;8.30;7.60;;;9.60;93.80;;;;;;5035210;28;20206;-79
2021/04/14 11:42:45;;;;;;;7.40;6.90;;;9.60;94.60;;;;;;5036788;28;20187;-79
2021/04/14 11:45:23;;;;;;;8.10;7.40;;;9.60;94.00;;;;;;5036539;28;20214;-79
2021/04/14 11:47:50;;;;;;;7.80;7.13;;;9.70;93.20;;;;;;5034971;28;20195;-79
2021/04/14 11:50:20;;;;;;;7.20;6.60;;;9.80;93.90;;;;;;5036266;28;20475;-80
2021/04/14 11:52:50;;;;;;;7.13;6.63;;;10.10;94.30;;;;;;5036017;28;20188;-79
2021/04/14 11:55:29;;;;;;;7.47;6.70;;;10.30;93.50;;;;;;5034593;28;20653;-79
2021/04/14 11:57:58;;;;;;;6.90;6.37;;;10.30;92.90;;;;;;5036235;28;20183;-79
2021/04/14 12:00:29;;;;;;;7.33;6.73;;;10.00;94.20;;;;;;5034800;28;20596;-80
2021/04/14 12:03:00;;;;;;;7.10;6.50;;;10.20;94.00;;;;;;5034837;28;20208;-79
2021/04/14 12:05:26;;;;;;;7.40;6.80;;;10.10;92.80;;;;;;5034735;28;20219;-80
2021/04/14 12:07:53;;;;;;;7.13;6.47;;;10.20;93.50;;;;;;5035889;28;20188;-79
2021/04/14 12:10:19;;;;;;;7.20;6.70;;;10.10;93.40;;;;;;5034250;28;20216;-79
2021/04/14 12:12:48;;;;;;;6.93;6.50;;;10.30;93.90;;;;;;5034409;28;20188;-79
2021/04/14 12:15:16;;;;;;;7.07;6.47;;;10.20;92.70;;;;;;5033961;28;20262;-79
2021/04/14 12:17:42;;;;;;;9.03;7.07;;;10.40;94.00;;;;;;5035710;28;20195;-79
2021/04/14 12:20:11;;;;;;;7.00;6.47;;;10.50;92.70;;;;;;5035113;28;20575;-79
2021/04/14 12:22:37;;;;;;;7.50;6.90;;;10.30;92.50;;;;;;5036335;28;20408;-80
2021/04/14 12:25:04;;;;;;;6.90;6.27;;;10.30;92.00;;;;;;5035343;28;20223;-80
2021/04/14 12:27:31;;;;;;;7.13;6.53;;;10.40;91.80;;;;;;5034163;28;20582;-80
2021/04/14 12:29:58;;;;;;;7.37;6.87;;;10.30;91.30;;;;;;5034655;28;20606;-79
2021/04/14 12:32:24;;;;;;;7.10;6.50;;;10.30;91.70;;;;;;5049045;23;20231;-77
2021/04/14 12:34:50;;;;;;;7.13;6.63;;;10.20;91.50;;;;;;5033303;28;20207;-77
2021/04/14 12:37:18;;;;;;;7.67;6.97;;;10.30;91.30;;;;;;5035564;28;20192;-77
2021/04/14 12:39:44;;;;;;;6.80;6.30;;;10.20;90.10;;;;;;5035333;28;20188;-77
2021/04/14 12:42:11;;;;;;;7.33;6.83;;;10.20;91.20;;;;;;5035372;28;20214;-78
2021/04/14 12:44:38;;;;;;;7.40;6.80;;;10.10;91.10;;;;;;5035536;28;20211;-77
2021/04/14 12:47:12;;;;;;;8.13;7.33;;;9.90;91.10;;;;;;5035856;28;20192;-77